Time;durP1;ratioP1;P1;durP2;ratioP2;P2;SDS_P1;SDS_P2;PMS_P1;PMS_P2;Temp;Humidity;BMP_temperature;BMP_pressure;BME280_temperature;BME280_humidity;BME280_pressure;Samples;Min_cycle;Max_cycle;Signal;HPM_P1;HPM_P2
2023/12/20 00:01:55;;;;;;;21.65;3.63;;;;;;;5.40;100.00;101589.34;5176057;27;20042;-74
2023/12/20 00:04:22;;;;;;;12.40;2.63;;;;;;;5.40;100.00;101578.03;5175486;27;20582;-74
2023/12/20 00:06:49;;;;;;;14.07;3.13;;;;;;;5.38;100.00;101581.03;5175208;27;20045;-74
2023/12/20 00:09:16;;;;;;;13.35;3.53;;;;;;;5.36;100.00;101575.38;5175938;27;20486;-74
2023/12/20 00:11:43;;;;;;;13.15;2.78;;;;;;;5.32;100.00;101572.75;5175002;27;20042;-74
2023/12/20 00:14:09;;;;;;;9.20;2.88;;;;;;;5.28;100.00;101569.38;5175114;27;20050;-74
2023/12/20 00:16:36;;;;;;;10.20;2.60;;;;;;;5.27;100.00;101572.41;5175524;27;21064;-74
2023/12/20 00:19:02;;;;;;;7.10;1.70;;;;;;;5.24;100.00;101570.53;5175860;27;20122;-74
2023/12/20 00:21:29;;;;;;;8.38;2.70;;;;;;;5.21;100.00;101571.28;5175243;27;20459;-73
2023/12/20 00:23:55;;;;;;;7.90;1.88;;;;;;;5.19;100.00;101563.03;5175100;27;20046;-73
2023/12/20 00:26:22;;;;;;;10.43;2.03;;;;;;;5.18;100.00;101569.44;5175715;27;20038;-73
2023/12/20 00:28:49;;;;;;;6.50;2.08;;;;;;;5.14;100.00;101566.81;5175738;27;20042;-73
2023/12/20 00:31:15;;;;;;;10.93;1.52;;;;;;;5.12;100.00;101563.03;5175433;27;20047;-73
2023/12/20 00:33:43;;;;;;;12.82;1.77;;;;;;;5.08;100.00;101570.22;5174893;27;20054;-73
2023/12/20 00:36:10;;;;;;;8.23;1.75;;;;;;;5.06;100.00;101580.38;5174938;27;20087;-73
2023/12/20 00:38:37;;;;;;;9.20;3.00;;;;;;;5.02;100.00;101570.59;5174475;27;20112;-74
2023/12/20 00:41:03;;;;;;;7.63;1.65;;;;;;;4.99;100.00;101568.72;5174762;27;20042;-73
2023/12/20 00:43:30;;;;;;;7.72;1.90;;;;;;;4.98;100.00;101571.72;5174690;27;20054;-73
2023/12/20 00:45:57;;;;;;;14.02;1.90;;;;;;;4.96;100.00;101568.72;5175246;27;20840;-73
2023/12/20 00:48:23;;;;;;;12.43;2.17;;;;;;;4.93;100.00;101564.94;5174495;27;20125;-73
2023/12/20 00:50:50;;;;;;;8.90;2.03;;;;;;;4.91;100.00;101561.94;5175404;27;20084;-73
2023/12/20 00:53:16;;;;;;;9.48;1.65;;;;;;;4.89;100.00;101555.53;5175339;27;20049;-73
2023/12/20 00:55:44;;;;;;;7.63;1.55;;;;;;;4.87;100.00;101558.56;5175079;27;20084;-73
2023/12/20 00:58:11;;;;;;;8.13;1.73;;;;;;;4.84;100.00;101561.19;5174177;27;20050;-73
2023/12/20 01:00:37;;;;;;;15.02;1.73;;;;;;;4.82;100.00;101569.47;5175320;27;20111;-73
2023/12/20 01:03:07;;;;;;;5.30;1.17;;;;;;;4.81;100.00;101567.97;5175255;27;20046;-74
2023/12/20 01:05:34;;;;;;;13.15;2.40;;;;;;;4.79;100.00;101564.25;5174464;27;20050;-74
2023/12/20 01:08:02;;;;;;;10.32;1.77;;;;;;;4.77;100.00;101572.53;5178775;27;20562;-74
2023/12/20 01:10:29;;;;;;;7.75;1.60;;;;;;;4.76;100.00;101557.09;5178480;27;20042;-74
2023/12/20 01:12:55;;;;;;;8.52;1.65;;;;;;;4.76;100.00;101552.56;5178132;27;20626;-73
2023/12/20 01:15:23;;;;;;;5.70;1.77;;;;;;;4.73;100.00;101545.41;5178702;27;20049;-73
2023/12/20 01:17:49;;;;;;;7.00;1.33;;;;;;;4.71;100.00;101557.47;5178033;27;20069;-73
2023/12/20 01:20:16;;;;;;;7.28;2.03;;;;;;;4.68;100.00;101548.41;5159641;27;20051;-73
2023/12/20 01:22:45;;;;;;;4.38;1.92;;;;;;;4.67;100.00;101545.03;5177731;27;20046;-73
2023/12/20 01:25:12;;;;;;;9.18;1.92;;;;;;;4.65;100.00;101549.94;5178605;27;20076;-73
2023/12/20 01:27:39;;;;;;;8.70;1.50;;;;;;;4.63;100.00;101562.75;5177502;27;20130;-73
2023/12/20 01:30:06;;;;;;;9.85;1.55;;;;;;;4.63;100.00;101568.00;5178740;27;20496;-73
2023/12/20 01:32:32;;;;;;;7.90;1.83;;;;;;;4.64;100.00;101572.16;5177733;27;20497;-73
2023/12/20 01:34:59;;;;;;;11.48;1.60;;;;;;;4.66;100.00;101574.41;5177901;27;20063;-74
2023/12/20 01:37:29;;;;;;;6.57;1.40;;;;;;;4.67;100.00;101565.38;5158508;27;20046;-74
2023/12/20 01:39:56;;;;;;;7.80;2.10;;;;;;;4.68;100.00;101572.91;5178313;27;20541;-74
2023/12/20 01:42:23;;;;;;;13.13;2.08;;;;;;;4.69;100.00;101565.75;5173817;27;20039;-74
2023/12/20 01:44:49;;;;;;;7.35;1.73;;;;;;;4.69;100.00;101568.38;5177744;27;20435;-73
2023/12/20 01:47:16;;;;;;;10.45;1.67;;;;;;;4.69;100.00;101560.47;5177068;27;20070;-73
2023/12/20 01:49:43;;;;;;;16.27;2.13;;;;;;;4.69;100.00;101561.22;5178154;27;20049;-73
2023/12/20 01:52:10;;;;;;;9.30;1.92;;;;;;;4.70;100.00;101554.06;5177625;27;20527;-73
2023/12/20 01:54:40;;;;;;;14.65;1.83;;;;;;;4.70;100.00;101551.44;5177895;27;20043;-73
2023/12/20 01:57:07;;;;;;;17.20;2.22;;;;;;;4.71;100.00;101550.31;5177459;27;20047;-73
2023/12/20 01:59:34;;;;;;;7.32;1.90;;;;;;;4.72;100.00;101556.34;5177625;27;20050;-73
2023/12/20 02:02:03;;;;;;;10.00;1.52;;;;;;;4.72;100.00;101557.09;5177963;27;20053;-73
2023/12/20 02:04:30;;;;;;;19.00;2.20;;;;;;;4.68;100.00;101554.44;5177154;27;20588;-73
2023/12/20 02:06:58;;;;;;;9.15;1.95;;;;;;;4.68;100.00;101554.44;5178288;27;20043;-74
2023/12/20 02:09:27;;;;;;;8.63;1.92;;;;;;;4.68;100.00;101551.81;5177051;27;20122;-74
2023/12/20 02:11:54;;;;;;;11.23;2.63;;;;;;;4.67;100.00;101557.47;5176972;27;20070;-74
2023/12/20 02:14:20;;;;;;;9.88;2.05;;;;;;;4.68;100.00;101551.06;5177221;27;20058;-74
2023/12/20 02:16:48;;;;;;;8.63;2.40;;;;;;;4.69;100.00;101552.56;5177191;27;20083;-74
2023/12/20 02:19:15;;;;;;;13.93;2.13;;;;;;;4.69;100.00;101550.69;5177082;27;20521;-73
2023/12/20 02:21:42;;;;;;;4.32;1.55;;;;;;;4.73;100.00;101547.28;5177520;27;20062;-73
2023/12/20 02:24:09;;;;;;;12.43;2.22;;;;;;;4.76;100.00;101543.91;5177281;27;20498;-73
2023/12/20 02:26:35;;;;;;;15.32;2.10;;;;;;;4.76;100.00;101541.25;5176324;27;20047;-74
2023/12/20 02:29:02;;;;;;;8.93;2.55;;;;;;;4.78;100.00;101546.91;5177583;27;20041;-73
2023/12/20 02:31:29;;;;;;;16.58;2.28;;;;;;;4.79;100.00;101543.88;5173597;27;20498;-74
2023/12/20 02:33:55;;;;;;;7.13;1.98;;;;;;;4.81;100.00;101541.59;5177331;27;20123;-73
2023/12/20 02:36:22;;;;;;;5.43;2.25;;;;;;;4.81;100.00;101544.22;5176412;27;20043;-73
2023/12/20 02:38:50;;;;;;;8.82;1.73;;;;;;;4.82;100.00;101534.44;5158421;27;20145;-73
2023/12/20 02:41:18;;;;;;;9.18;1.73;;;;;;;4.82;100.00;101540.47;5177183;27;20074;-73
2023/12/20 02:43:45;;;;;;;16.50;2.15;;;;;;;4.84;100.00;101540.09;5177278;27;20039;-73
2023/12/20 02:46:13;;;;;;;10.73;2.58;;;;;;;4.85;100.00;101533.69;5177262;27;20137;-73
2023/12/20 02:48:40;;;;;;;14.02;2.35;;;;;;;4.86;100.00;101535.19;5177538;27;20062;-73
2023/12/20 02:51:06;;;;;;;10.02;2.47;;;;;;;4.86;100.00;101528.03;5177662;27;20038;-73
2023/12/20 02:53:33;;;;;;;11.55;2.55;;;;;;;4.87;100.00;101529.53;5176939;27;20081;-73
2023/12/20 02:55:59;;;;;;;8.07;2.20;;;;;;;4.87;100.00;101526.88;5176441;27;20471;-73
2023/12/20 02:58:26;;;;;;;8.93;2.33;;;;;;;4.88;100.00;101522.38;5157889;27;20542;-73
2023/12/20 03:00:52;;;;;;;16.00;2.45;;;;;;;4.86;100.00;101519.34;5181857;27;20049;-73
2023/12/20 03:03:19;;;;;;;16.00;3.00;;;;;;;4.86;100.00;101517.47;5182435;27;20096;-73
2023/12/20 03:05:46;;;;;;;13.98;2.65;;;;;;;4.87;100.00;101518.97;5181474;27;20091;-73
2023/12/20 03:08:13;;;;;;;12.30;2.28;;;;;;;4.89;100.00;101519.34;5180575;27;20371;-73
2023/12/20 03:10:39;;;;;;;13.07;2.50;;;;;;;4.90;100.00;101520.84;5176671;27;20038;-73
2023/12/20 03:13:06;;;;;;;10.82;2.47;;;;;;;4.91;100.00;101509.16;5176547;27;20063;-73
2023/12/20 03:15:32;;;;;;;14.23;2.45;;;;;;;4.93;100.00;101511.44;5154787;27;20130;-73
2023/12/20 03:17:59;;;;;;;12.93;2.70;;;;;;;4.94;100.00;101508.41;5177059;27;20425;-73
2023/12/20 03:20:26;;;;;;;16.20;2.65;;;;;;;4.95;100.00;101512.56;5157179;27;20043;-74
2023/12/20 03:22:52;;;;;;;13.57;2.35;;;;;;;4.96;100.00;101514.06;5175867;27;20122;-74
2023/12/20 03:25:19;;;;;;;23.25;2.60;;;;;;;4.96;100.00;101511.41;5176564;27;20335;-74
2023/12/20 03:27:45;;;;;;;15.88;2.75;;;;;;;4.96;100.00;101508.03;5176654;27;20126;-74
2023/12/20 03:30:12;;;;;;;16.13;2.70;;;;;;;4.96;100.00;101495.59;5175228;27;20532;-73
2023/12/20 03:32:39;;;;;;;18.17;2.55;;;;;;;4.98;100.00;101493.31;5175816;27;20039;-73
2023/12/20 03:35:06;;;;;;;8.10;2.35;;;;;;;4.99;100.00;101500.09;5173267;27;20502;-73
2023/12/20 03:37:32;;;;;;;23.80;2.88;;;;;;;5.01;100.00;101497.84;5175550;27;20050;-73
2023/12/20 03:39:59;;;;;;;12.23;2.40;;;;;;;5.06;100.00;101495.94;5176638;27;20074;-73
2023/12/20 03:42:26;;;;;;;12.45;2.38;;;;;;;5.09;100.00;101505.72;5176114;27;20047;-73
2023/12/20 03:44:52;;;;;;;10.98;2.70;;;;;;;5.11;100.00;101500.81;5175841;27;20039;-73
2023/12/20 03:47:18;;;;;;;13.85;2.55;;;;;;;5.14;100.00;101502.69;5176142;27;20038;-73
2023/12/20 03:49:45;;;;;;;11.07;2.22;;;;;;;5.15;100.00;101507.59;5175412;27;20049;-73
2023/12/20 03:52:12;;;;;;;17.35;2.63;;;;;;;5.18;100.00;101503.44;5175965;27;20050;-73
2023/12/20 03:54:38;;;;;;;9.60;2.67;;;;;;;5.17;100.00;101507.22;5172152;27;20051;-73
2023/12/20 03:57:05;;;;;;;14.07;2.28;;;;;;;5.14;100.00;101503.44;5156507;27;20131;-73
2023/12/20 03:59:36;;;;;;;16.50;2.47;;;;;;;5.15;100.00;101493.66;5174139;27;20058;-73
2023/12/20 04:02:03;;;;;;;9.43;2.28;;;;;;;5.14;100.00;101495.53;5175721;27;20039;-74
2023/12/20 04:04:30;;;;;;;19.00;3.75;;;;;;;5.15;100.00;101501.56;5174821;27;20557;-73
2023/12/20 04:06:56;;;;;;;10.50;2.55;;;;;;;5.17;100.00;101494.03;5175826;27;20066;-73
2023/12/20 04:09:23;;;;;;;12.93;2.38;;;;;;;5.20;100.00;101503.81;5174651;27;20042;-73
2023/12/20 04:11:50;;;;;;;16.98;2.50;;;;;;;5.23;100.00;101503.78;5175939;27;20054;-73
2023/12/20 04:14:16;;;;;;;18.40;2.95;;;;;;;5.26;100.00;101504.91;5175095;27;20112;-73
2023/12/20 04:16:43;;;;;;;17.67;2.75;;;;;;;5.30;100.00;101500.34;5174773;27;20154;-73
2023/12/20 04:19:13;;;;;;;18.52;2.72;;;;;;;5.34;100.00;101485.25;5171690;27;20082;-73
2023/12/20 04:21:39;;;;;;;16.48;2.75;;;;;;;5.35;100.00;101482.22;5175130;27;20046;-73
2023/12/20 04:24:06;;;;;;;16.73;2.65;;;;;;;5.38;100.00;101482.59;5175958;27;20070;-73
2023/12/20 04:26:33;;;;;;;15.77;2.60;;;;;;;5.40;100.00;101493.53;5175067;27;20180;-73
2023/12/20 04:28:59;;;;;;;11.68;2.35;;;;;;;5.43;100.00;101482.19;5175176;27;20038;-73
2023/12/20 04:31:26;;;;;;;11.73;2.28;;;;;;;5.46;100.00;101484.06;5174229;27;20042;-73
2023/12/20 04:33:53;;;;;;;10.38;2.63;;;;;;;5.50;100.00;101490.09;5175717;27;20129;-73
2023/12/20 04:36:19;;;;;;;18.67;2.42;;;;;;;5.52;100.00;101499.13;5175251;27;20068;-73
2023/12/20 04:38:46;;;;;;;17.10;2.53;;;;;;;5.55;100.00;101500.25;5175128;27;20172;-73
2023/12/20 04:41:15;;;;;;;16.13;2.40;;;;;;;5.55;100.00;101490.44;5177114;27;20092;-73
2023/12/20 04:43:42;;;;;;;16.50;2.08;;;;;;;5.57;100.00;101488.16;5178353;27;20519;-73
2023/12/20 04:46:09;;;;;;;13.57;2.70;;;;;;;5.58;100.00;101491.56;5179209;27;20043;-73
2023/12/20 04:48:35;;;;;;;13.23;2.30;;;;;;;5.59;100.00;101485.88;5178351;27;20042;-73
2023/12/20 04:51:02;;;;;;;13.05;2.00;;;;;;;5.62;100.00;101484.34;5178814;27;20045;-73
2023/12/20 04:53:29;;;;;;;8.50;1.90;;;;;;;5.64;100.00;101490.72;5177536;27;20066;-73
2023/12/20 04:55:55;;;;;;;17.42;2.95;;;;;;;5.67;100.00;101484.69;5178671;27;20043;-73
2023/12/20 04:58:22;;;;;;;15.90;2.50;;;;;;;5.70;100.00;101486.56;5178687;27;20065;-73
2023/12/20 05:00:48;;;;;;;7.35;1.83;;;;;;;5.72;100.00;101474.84;5179107;27;20092;-73
2023/12/20 05:03:15;;;;;;;13.65;2.58;;;;;;;5.74;100.00;101469.91;5174885;27;20066;-73
2023/12/20 05:05:41;;;;;;;22.50;3.30;;;;;;;5.75;100.00;101468.78;5178863;27;20069;-73
2023/12/20 05:08:08;;;;;;;13.88;2.50;;;;;;;5.77;100.00;101471.78;5179050;27;20478;-73
2023/12/20 05:10:36;;;;;;;14.65;2.80;;;;;;;5.77;100.00;101472.53;5177675;27;20070;-73
2023/12/20 05:13:03;;;;;;;13.00;2.67;;;;;;;5.80;100.00;101471.03;5178527;27;20100;-73
2023/12/20 05:15:29;;;;;;;10.88;2.40;;;;;;;5.82;100.00;101469.50;5177847;27;20067;-73
2023/12/20 05:17:56;;;;;;;8.68;2.85;;;;;;;5.86;100.00;101478.16;5177855;27;20042;-73
2023/12/20 05:20:23;;;;;;;14.27;2.72;;;;;;;5.86;100.00;101470.22;5178692;27;20070;-73
2023/12/20 05:22:50;;;;;;;13.02;2.33;;;;;;;5.87;100.00;101477.00;5178635;27;20092;-73
2023/12/20 05:25:17;;;;;;;12.55;2.33;;;;;;;5.87;100.00;101479.66;5177818;27;20054;-73
2023/12/20 05:27:43;;;;;;;14.63;2.17;;;;;;;5.88;100.00;101478.50;5178182;27;20130;-73
2023/12/20 05:30:11;;;;;;;16.40;2.70;;;;;;;5.90;100.00;101478.16;5178203;27;20063;-73
2023/12/20 05:32:37;;;;;;;16.40;2.42;;;;;;;5.90;100.00;101480.78;5177621;27;20043;-73
2023/12/20 05:35:04;;;;;;;11.00;2.30;;;;;;;5.90;100.00;101476.25;5177689;27;20080;-73
2023/12/20 05:37:30;;;;;;;11.38;2.80;;;;;;;5.90;100.00;101481.56;5177770;27;20099;-73
2023/12/20 05:39:57;;;;;;;10.32;2.10;;;;;;;5.91;100.00;101477.00;5178346;27;20050;-73
2023/12/20 05:42:24;;;;;;;9.20;2.55;;;;;;;5.92;100.00;101486.44;5177469;27;20039;-73
2023/12/20 05:44:50;;;;;;;15.25;2.53;;;;;;;5.92;100.00;101479.28;5177013;27;20043;-73
2023/12/20 05:47:20;;;;;;;16.48;2.45;;;;;;;5.94;100.00;101482.28;5177108;27;20483;-73
2023/12/20 05:49:46;;;;;;;16.70;2.95;;;;;;;5.96;100.00;101485.28;5178169;27;20499;-73
2023/12/20 05:52:13;;;;;;;13.68;2.40;;;;;;;5.97;100.00;101483.41;5177210;27;20035;-73
2023/12/20 05:54:40;;;;;;;21.17;2.90;;;;;;;5.99;100.00;101478.47;5177177;27;20092;-73
2023/12/20 05:57:06;;;;;;;10.43;2.03;;;;;;;5.99;100.00;101489.03;5174678;27;20501;-73
2023/12/20 05:59:33;;;;;;;16.58;2.63;;;;;;;6.02;100.00;101477.66;5177861;27;20035;-73
2023/12/20 06:01:59;;;;;;;15.15;3.15;;;;;;;6.02;100.00;101477.66;5159428;27;20556;-73
2023/12/20 06:04:26;;;;;;;23.95;3.20;;;;;;;6.02;100.00;101482.94;5177314;27;20592;-73
2023/12/20 06:06:52;;;;;;;12.18;1.88;;;;;;;6.02;100.00;101478.41;5176949;27;20514;-73
2023/12/20 06:09:19;;;;;;;7.28;2.05;;;;;;;6.05;100.00;101473.50;5158905;27;20100;-73
2023/12/20 06:11:46;;;;;;;11.43;2.10;;;;;;;6.05;100.00;101474.25;5177303;27;20035;-73
2023/12/20 06:14:12;;;;;;;10.27;2.60;;;;;;;6.05;100.00;101470.84;5176555;27;20545;-73
2023/12/20 06:16:39;;;;;;;12.00;2.97;;;;;;;6.07;100.00;101469.31;5176732;27;20046;-73
2023/12/20 06:19:05;;;;;;;12.43;3.08;;;;;;;6.08;100.00;101465.53;5178514;27;20103;-73
2023/12/20 06:21:32;;;;;;;13.27;2.40;;;;;;;6.10;100.00;101473.06;5177098;27;20034;-73
2023/12/20 06:24:00;;;;;;;9.88;2.08;;;;;;;6.13;100.00;101464.38;5177434;27;20074;-73
2023/12/20 06:26:26;;;;;;;13.25;2.35;;;;;;;6.15;100.00;101472.66;5174309;27;20043;-73
2023/12/20 06:28:53;;;;;;;11.13;2.88;;;;;;;6.15;100.00;101465.47;5177357;27;20049;-73
2023/12/20 06:31:19;;;;;;;19.17;2.20;;;;;;;6.17;100.00;101475.66;5177168;27;20054;-73
2023/12/20 06:33:46;;;;;;;15.90;2.47;;;;;;;6.20;100.00;101477.53;5175870;27;20043;-73
2023/12/20 06:36:13;;;;;;;10.38;2.78;;;;;;;6.20;100.00;101466.97;5177684;27;20042;-73
2023/12/20 06:38:42;;;;;;;9.05;2.58;;;;;;;6.19;100.00;101463.56;5176750;27;20716;-73
2023/12/20 06:41:08;;;;;;;9.40;2.60;;;;;;;6.20;100.00;101467.72;5177551;27;20046;-73
2023/12/20 06:43:35;;;;;;;8.48;2.10;;;;;;;6.22;100.00;101459.38;5176413;27;20043;-73
2023/12/20 06:46:15;;;;;;;14.30;2.35;;;;;;;6.23;100.00;101463.53;5177287;27;20115;-73
2023/12/20 06:48:42;;;;;;;16.13;2.60;;;;;;;6.23;100.00;101464.28;5176308;27;20049;-73
2023/12/20 06:51:15;;;;;;;12.63;3.17;;;;;;;6.24;100.00;101454.47;5176774;27;20088;-73
2023/12/20 06:53:42;;;;;;;17.02;2.67;;;;;;;6.24;100.00;101449.91;5176324;27;20517;-73
2023/12/20 06:56:11;;;;;;;13.82;2.72;;;;;;;6.26;100.00;101454.81;5176847;27;20125;-73
2023/12/20 06:58:42;;;;;;;8.10;2.60;;;;;;;6.25;100.00;101459.34;5158382;27;20495;-73
2023/12/20 07:01:13;;;;;;;18.45;3.00;;;;;;;6.24;100.00;101455.22;5176679;27;20046;-74
2023/12/20 07:03:40;;;;;;;15.55;3.08;;;;;;;6.25;100.00;101456.72;5174570;27;20043;-73
2023/12/20 07:06:07;;;;;;;15.32;2.15;;;;;;;6.26;100.00;101452.16;5158396;27;20039;-73
2023/12/20 07:08:36;;;;;;;11.15;2.47;;;;;;;6.27;100.00;101448.38;5176955;27;20039;-73
2023/12/20 07:11:03;;;;;;;14.75;2.15;;;;;;;6.29;100.00;101457.44;5177655;27;20042;-73
2023/12/20 07:13:29;;;;;;;14.70;2.35;;;;;;;6.31;100.00;101449.09;5175447;27;20065;-73
2023/12/20 07:15:56;;;;;;;8.05;2.38;;;;;;;6.34;100.00;101459.66;5176032;27;20043;-72
2023/12/20 07:18:23;;;;;;;15.38;2.92;;;;;;;6.37;100.00;101449.44;5176268;27;20114;-73
2023/12/20 07:20:49;;;;;;;12.88;2.28;;;;;;;6.37;100.00;101450.19;5176676;27;20046;-73
2023/12/20 07:23:16;;;;;;;19.13;2.50;;;;;;;6.37;100.00;101452.06;5176197;27;20110;-73
2023/12/20 07:25:42;;;;;;;10.07;3.03;;;;;;;6.38;100.00;101440.34;5175533;27;20066;-76
2023/12/20 07:28:09;;;;;;;12.10;2.58;;;;;;;6.38;100.00;101445.66;5176448;27;20053;-73
2023/12/20 07:30:36;;;;;;;14.65;2.45;;;;;;;6.38;100.00;101441.09;5176333;27;20046;-73
2023/12/20 07:33:03;;;;;;;16.00;2.30;;;;;;;6.39;100.00;101444.50;5176210;27;20125;-74
2023/12/20 07:35:30;;;;;;;16.38;2.80;;;;;;;6.39;100.00;101442.63;5176099;27;20634;-73
2023/12/20 07:37:57;;;;;;;11.43;2.90;;;;;;;6.42;100.00;101433.13;5176592;27;20035;-74
2023/12/20 07:40:24;;;;;;;11.32;2.75;;;;;;;6.42;100.00;101430.47;5175618;27;20045;-74
2023/12/20 07:42:50;;;;;;;13.23;2.92;;;;;;;6.43;100.00;101429.31;5176804;27;20043;-74
2023/12/20 07:45:17;;;;;;;10.82;2.58;;;;;;;6.45;100.00;101437.63;5157593;27;20513;-74
2023/12/20 07:47:44;;;;;;;15.38;2.42;;;;;;;6.48;100.00;101442.13;5157113;27;20096;-73
2023/12/20 07:50:11;;;;;;;9.93;2.33;;;;;;;6.49;100.00;101447.03;5176231;27;20062;-74
2023/12/20 07:52:38;;;;;;;16.35;3.47;;;;;;;6.52;100.00;101448.13;5178088;27;20038;-74
2023/12/20 07:55:05;;;;;;;10.40;2.25;;;;;;;6.52;100.00;101462.09;5180973;27;20077;-74
2023/12/20 07:57:31;;;;;;;13.45;2.92;;;;;;;6.53;100.00;101453.03;5184582;27;20050;-74
2023/12/20 07:59:58;;;;;;;14.43;2.35;;;;;;;6.55;100.00;101463.97;5180599;27;20917;-74
2023/12/20 08:02:24;;;;;;;13.38;2.92;;;;;;;6.55;100.00;101463.97;5177028;27;20572;-72
2023/12/20 08:04:51;;;;;;;16.95;2.65;;;;;;;6.55;100.00;101466.63;5175585;27;20497;-71
2023/12/20 08:07:17;;;;;;;10.55;2.15;;;;;;;6.56;100.00;101468.13;5175151;27;20577;-76
2023/12/20 08:09:44;;;;;;;13.98;2.67;;;;;;;6.61;100.00;101475.63;5175710;27;20039;-75
2023/12/20 08:12:11;;;;;;;13.07;2.25;;;;;;;6.63;100.00;101483.16;5172018;27;20108;-75
2023/12/20 08:14:38;;;;;;;15.40;2.45;;;;;;;6.63;100.00;101477.88;5174433;27;20051;-77
2023/12/20 08:17:04;;;;;;;14.20;2.78;;;;;;;6.63;100.00;101477.88;5175089;27;20042;-76
2023/12/20 08:19:31;;;;;;;10.60;2.60;;;;;;;6.64;100.00;101482.03;5156683;27;20049;-74
2023/12/20 08:21:57;;;;;;;13.52;2.75;;;;;;;6.65;100.00;101470.31;5176090;27;20039;-75
2023/12/20 08:24:24;;;;;;;12.75;3.00;;;;;;;6.66;100.00;101466.50;5175236;27;20050;-75
2023/12/20 08:26:50;;;;;;;11.95;2.30;;;;;;;6.69;100.00;101468.38;5175506;27;20047;-75
2023/12/20 08:29:17;;;;;;;15.27;3.08;;;;;;;6.72;100.00;101474.78;5156558;27;20046;-75
2023/12/20 08:31:43;;;;;;;22.70;3.25;;;;;;;6.75;100.00;101463.41;5171578;27;20505;-75
2023/12/20 08:34:12;;;;;;;17.40;2.45;;;;;;;6.75;100.00;101466.78;5156797;27;20043;-75
2023/12/20 08:36:39;;;;;;;19.60;2.65;;;;;;;6.76;100.00;101468.28;5175849;27;20907;-75
2023/12/20 08:39:07;;;;;;;12.00;2.95;;;;;;;6.77;100.00;101455.81;5175404;27;20065;-75
2023/12/20 08:41:35;;;;;;;12.07;2.15;;;;;;;6.79;100.00;101458.81;5174581;27;20043;-75
2023/12/20 08:44:01;;;;;;;10.30;2.38;;;;;;;6.78;100.00;101450.13;5175350;27;20047;-75
2023/12/20 08:46:28;;;;;;;13.98;2.60;;;;;;;6.79;100.00;101464.88;5175107;27;20039;-75
2023/12/20 08:48:55;;;;;;;16.58;2.83;;;;;;;6.80;100.00;101463.69;5175750;27;20118;-75
2023/12/20 08:51:23;;;;;;;12.60;2.55;;;;;;;6.81;100.00;101457.25;5175120;27;20571;-75
2023/12/20 08:53:50;;;;;;;9.43;2.35;;;;;;;6.82;100.00;101450.06;5175864;27;20119;-75
2023/12/20 08:56:17;;;;;;;17.85;3.35;;;;;;;6.82;100.00;101450.81;5175149;27;20046;-75
2023/12/20 08:58:45;;;;;;;17.20;3.15;;;;;;;6.81;100.00;101453.84;5174589;27;20072;-75
2023/12/20 09:01:13;;;;;;;23.95;2.60;;;;;;;6.81;100.00;101459.16;5175322;27;20109;-75
2023/12/20 09:03:40;;;;;;;15.15;2.60;;;;;;;6.79;100.00;101453.53;5155877;27;20039;-75
2023/12/20 09:06:07;;;;;;;17.25;2.40;;;;;;;6.78;100.00;101452.78;5175625;27;20046;-75
2023/12/20 09:08:34;;;;;;;17.30;2.97;;;;;;;6.76;100.00;101446.38;5174581;27;20045;-76
2023/12/20 09:11:00;;;;;;;13.68;3.30;;;;;;;6.77;100.00;101453.91;5174748;27;20050;-76
2023/12/20 09:13:28;;;;;;;10.02;3.00;;;;;;;6.75;100.00;101458.84;5174567;27;20061;-76
2023/12/20 09:15:56;;;;;;;22.25;3.63;;;;;;;6.74;100.00;101449.41;5174808;27;20038;-76
2023/12/20 09:18:23;;;;;;;14.45;2.35;;;;;;;6.74;100.00;101456.59;5174503;27;20046;-75
2023/12/20 09:20:50;;;;;;;15.75;2.80;;;;;;;6.74;100.00;101452.06;5174692;27;20039;-76
2023/12/20 09:23:18;;;;;;;16.60;2.88;;;;;;;6.74;100.00;101452.06;5174238;27;20594;-76
2023/12/20 09:25:44;;;;;;;10.95;2.72;;;;;;;6.76;100.00;101447.13;5175050;27;20050;-76
2023/12/20 09:28:11;;;;;;;12.45;2.95;;;;;;;6.78;100.00;101447.47;5176916;27;20128;-76
2023/12/20 09:30:39;;;;;;;10.70;2.17;;;;;;;6.80;100.00;101444.44;5177797;27;20043;-76
2023/12/20 09:33:07;;;;;;;14.68;2.58;;;;;;;6.82;100.00;101445.53;5178000;27;20115;-77
2023/12/20 09:35:34;;;;;;;12.48;3.38;;;;;;;6.84;100.00;101443.22;5174981;27;20076;-76
2023/12/20 09:38:00;;;;;;;10.30;2.33;;;;;;;6.89;100.00;101447.34;5178180;27;20068;-75
2023/12/20 09:40:28;;;;;;;12.13;2.65;;;;;;;6.91;100.00;101450.34;5178071;27;20047;-76
2023/12/20 09:42:56;;;;;;;11.40;2.40;;;;;;;6.95;100.00;101454.44;5177869;27;20053;-77
2023/12/20 09:45:24;;;;;;;19.33;2.67;;;;;;;7.00;100.00;101450.63;5171342;27;20039;-76
2023/12/20 09:47:56;;;;;;;12.50;2.35;;;;;;;7.02;100.00;101454.38;5177807;27;20118;-76
2023/12/20 09:50:24;;;;;;;10.43;2.72;;;;;;;7.08;100.00;101456.56;5173624;27;20043;-76
2023/12/20 09:52:52;;;;;;;13.32;2.42;;;;;;;7.12;100.00;101463.34;5178093;27;20047;-76
2023/12/20 09:55:19;;;;;;;13.10;2.80;;;;;;;7.13;100.00;101456.88;5177871;27;20042;-76
2023/12/20 09:57:48;;;;;;;9.55;2.33;;;;;;;7.19;100.00;101465.16;5177882;27;20074;-76
2023/12/20 10:00:17;;;;;;;13.73;2.55;;;;;;;7.23;100.00;101465.81;5177321;27;20031;-77
2023/12/20 10:03:00;;;;;;;11.02;2.63;;;;;;;7.26;100.00;101457.09;5177751;27;20053;-77
2023/12/20 10:05:36;;;;;;;15.73;2.60;;;;;;;7.32;100.00;101464.19;5174996;27;20575;-75
2023/12/20 10:08:03;;;;;;;10.18;2.28;;;;;;;7.37;100.00;101465.66;5155828;27;20069;-77
2023/12/20 10:10:30;;;;;;;12.50;2.55;;;;;;;7.41;100.00;101470.91;5178133;27;20043;-77
2023/12/20 10:13:12;;;;;;;15.45;2.88;;;;;;;7.44;100.00;101470.09;5174313;27;20058;-77
2023/12/20 10:15:39;;;;;;;16.60;2.97;;;;;;;7.46;100.00;101476.50;5176660;27;20049;-77
2023/12/20 10:18:06;;;;;;;15.40;2.92;;;;;;;7.47;100.00;101478.00;5140633;27;20104;-77
2023/12/20 10:20:33;;;;;;;13.85;2.78;;;;;;;7.47;100.00;101467.41;5177293;27;20050;-77
2023/12/20 10:23:01;;;;;;;11.88;2.67;;;;;;;7.50;100.00;101476.44;5177793;27;20058;-77
2023/12/20 10:25:27;;;;;;;11.25;2.33;;;;;;;7.50;100.00;101471.16;5177890;27;20121;-77
2023/12/20 10:28:18;;;;;;;12.45;2.47;;;;;;;7.52;100.00;101474.16;5177493;27;20487;-77
2023/12/20 10:30:45;;;;;;;14.60;2.90;;;;;;;7.56;100.00;101464.25;5176070;27;20147;-78
2023/12/20 10:33:12;;;;;;;10.20;2.72;;;;;;;7.56;100.00;101458.97;5177606;27;20043;-75
2023/12/20 10:35:40;;;;;;;17.45;2.70;;;;;;;7.58;100.00;101457.41;5177043;27;20146;-75
2023/12/20 10:38:13;;;;;;;13.40;2.80;;;;;;;7.63;100.00;101446.34;5176731;27;20050;-75
2023/12/20 10:40:40;;;;;;;12.38;2.40;;;;;;;7.66;100.00;101442.88;5177440;27;20089;-77
2023/12/20 10:43:08;;;;;;;15.10;2.72;;;;;;;7.67;100.00;101454.97;5177352;27;20051;-77
2023/12/20 10:45:35;;;;;;;16.00;3.13;;;;;;;7.68;100.00;101447.78;5176262;27;20043;-76
2023/12/20 10:48:02;;;;;;;19.52;3.22;;;;;;;7.72;100.00;101445.84;5158868;27;20043;-76
2023/12/20 10:50:31;;;;;;;8.68;2.50;;;;;;;7.76;100.00;101446.53;5176237;27;20047;-76
2023/12/20 10:52:58;;;;;;;12.90;2.53;;;;;;;7.77;100.00;101441.97;5177789;27;20049;-76
2023/12/20 10:55:25;;;;;;;10.18;1.92;;;;;;;7.79;100.00;101426.41;5175003;27;20043;-76
2023/12/20 10:58:00;;;;;;;12.35;2.53;;;;;;;7.79;100.00;101434.38;5176293;27;20051;-76
2023/12/20 11:00:30;;;;;;;11.00;2.75;;;;;;;7.82;100.00;101441.53;5176340;27;20043;-76
2023/12/20 11:03:00;;;;;;;16.83;2.58;;;;;;;7.81;100.00;101430.16;5176958;27;20045;-76
2023/12/20 11:05:42;;;;;;;14.40;2.25;;;;;;;7.87;100.00;101430.47;5175719;27;20557;-76
2023/12/20 11:08:12;;;;;;;;;;;;;;;7.91;100.00;101428.50;5171574;27;20042;-75
2023/12/20 11:11:24;;;;;;;10.45;2.33;;;;;;;7.93;100.00;101420.91;5172419;27;20393;-75
2023/12/20 11:13:58;;;;;;;12.98;1.92;;;;;;;8.00;100.00;101426.06;5158392;27;20162;-75
2023/12/20 11:16:25;;;;;;;17.10;2.75;;;;;;;8.04;100.00;101416.16;5174668;27;20087;-77
2023/12/20 11:19:04;;;;;;;11.57;2.13;;;;;;;8.09;100.00;101428.19;5176382;27;20035;-75
2023/12/20 11:21:30;;;;;;;9.88;2.35;;;;;;;8.12;100.00;101428.13;5174983;27;20034;-75